createdAt,value
2023-01-15T00:00:09.568Z,6.83
2023-01-15T00:02:37.107Z,6.84
2023-01-15T00:05:07.045Z,6.82
2023-01-15T00:07:34.514Z,6.85
2023-01-15T00:10:01.988Z,6.85
2023-01-15T00:12:29.475Z,6.84
2023-01-15T00:14:58.041Z,6.84
2023-01-15T00:17:25.945Z,6.79
2023-01-15T00:19:53.402Z,6.80
2023-01-15T00:22:22.608Z,6.82
2023-01-15T00:25:08.126Z,6.82
2023-01-15T00:27:44.010Z,6.81
2023-01-15T00:30:14.209Z,6.84
2023-01-15T00:32:42.749Z,6.86
2023-01-15T00:35:13.606Z,6.92
2023-01-15T00:37:42.656Z,6.95
2023-01-15T00:40:11.170Z,6.95
2023-01-15T00:42:38.615Z,6.99
2023-01-15T00:45:10.062Z,6.93
2023-01-15T00:47:38.090Z,6.92
2023-01-15T00:50:06.874Z,6.95
2023-01-15T00:52:34.218Z,6.96
2023-01-15T00:55:02.981Z,7.06
2023-01-15T00:57:30.800Z,6.98
2023-01-15T00:59:58.378Z,6.98
2023-01-15T01:02:26.264Z,6.97
2023-01-15T01:04:53.762Z,7.01
2023-01-15T01:07:21.202Z,7.12
2023-01-15T01:09:49.655Z,7.12
2023-01-15T01:12:18.448Z,7.04
2023-01-15T01:14:45.782Z,7.09
2023-01-15T01:17:14.711Z,7.09
2023-01-15T01:19:42.177Z,7.15
2023-01-15T01:22:09.664Z,7.16
2023-01-15T01:24:37.233Z,7.19
2023-01-15T01:27:04.927Z,7.18
2023-01-15T01:29:33.729Z,7.18
2023-01-15T01:32:01.051Z,7.19
2023-01-15T01:34:28.472Z,7.16
2023-01-15T01:36:55.931Z,7.19
2023-01-15T01:39:23.399Z,7.19
2023-01-15T01:41:50.875Z,7.20
2023-01-15T01:44:55.885Z,7.22
2023-01-15T01:47:28.356Z,7.27
2023-01-15T01:50:00.532Z,7.25
2023-01-15T01:52:31.310Z,7.36
2023-01-15T01:54:59.469Z,7.27
2023-01-15T01:57:27.235Z,7.32
2023-01-15T01:59:55.519Z,7.27
2023-01-15T02:02:26.255Z,7.27
2023-01-15T02:04:53.847Z,7.30
2023-01-15T02:07:21.329Z,7.31
2023-01-15T02:09:48.839Z,7.31
2023-01-15T02:12:25.856Z,7.34
2023-01-15T02:15:01.086Z,7.32
2023-01-15T02:17:37.141Z,7.36
2023-01-15T02:20:21.004Z,7.38
2023-01-15T02:23:00.806Z,7.44
2023-01-15T02:25:35.073Z,7.45
2023-01-15T02:28:11.396Z,7.42
2023-01-15T02:30:43.857Z,7.46
2023-01-15T02:33:15.805Z,7.45
2023-01-15T02:35:49.824Z,7.53
2023-01-15T02:38:21.240Z,7.43
2023-01-15T02:40:53.498Z,7.48
2023-01-15T02:43:23.935Z,7.62
2023-01-15T02:45:55.124Z,7.48
2023-01-15T02:48:27.920Z,7.45
2023-01-15T02:51:01.700Z,7.63
2023-01-15T02:53:31.998Z,7.51
2023-01-15T02:56:04.137Z,7.51
2023-01-15T02:58:38.497Z,7.53
2023-01-15T03:01:11.065Z,7.51
2023-01-15T03:03:45.795Z,7.59
2023-01-15T03:06:19.419Z,7.59
2023-01-15T03:08:47.628Z,7.57
2023-01-15T03:11:19.274Z,7.61
2023-01-15T03:13:52.918Z,7.68
2023-01-15T03:16:37.790Z,7.64
2023-01-15T03:19:12.786Z,7.70
2023-01-15T03:21:44.681Z,7.67
2023-01-15T03:24:15.054Z,7.62
2023-01-15T03:26:42.594Z,7.65
2023-01-15T03:29:14.051Z,7.68
2023-01-15T03:31:42.081Z,7.75
2023-01-15T03:34:11.499Z,7.81
2023-01-15T03:36:39.139Z,7.82
2023-01-15T03:39:06.745Z,7.77
2023-01-15T03:41:45.617Z,7.86
2023-01-15T03:44:25.178Z,7.86
2023-01-15T03:47:00.632Z,7.88
2023-01-15T03:49:38.572Z,7.96
2023-01-15T03:52:12.124Z,7.86
2023-01-15T03:54:48.111Z,7.88
2023-01-15T03:57:22.835Z,7.91
2023-01-15T03:59:55.377Z,7.91
2023-01-15T04:02:24.578Z,7.86
2023-01-15T04:04:53.468Z,7.87
2023-01-15T04:07:22.100Z,7.79
2023-01-15T04:09:49.675Z,7.79
2023-01-15T04:12:17.149Z,7.71
2023-01-15T04:14:44.630Z,7.84
2023-01-15T04:17:13.423Z,7.72
2023-01-15T04:19:40.888Z,7.69
2023-01-15T04:22:08.479Z,7.66
2023-01-15T04:24:36.014Z,7.69
2023-01-15T04:27:03.479Z,7.65
2023-01-15T04:29:30.933Z,7.62
2023-01-15T04:31:58.440Z,7.63
2023-01-15T04:34:28.453Z,7.64
2023-01-15T04:36:57.013Z,7.61
2023-01-15T04:39:24.492Z,7.61
2023-01-15T04:42:09.462Z,7.64
2023-01-15T04:44:38.218Z,7.61
2023-01-15T04:47:05.664Z,7.64
2023-01-15T04:49:35.855Z,7.65
2023-01-15T04:52:03.480Z,7.60
2023-01-15T04:54:31.358Z,7.63
2023-01-15T04:56:58.892Z,7.68
2023-01-15T04:59:28.269Z,7.66
2023-01-15T05:02:04.588Z,7.63
2023-01-15T05:04:35.362Z,7.69
2023-01-15T05:07:03.896Z,7.71
2023-01-15T05:09:31.494Z,7.68
2023-01-15T05:12:01.611Z,7.76
2023-01-15T05:14:29.326Z,7.74
2023-01-15T05:16:56.859Z,7.77
2023-01-15T05:19:24.318Z,7.74
2023-01-15T05:21:53.110Z,7.77
2023-01-15T05:24:20.705Z,7.82
2023-01-15T05:26:48.206Z,7.85
2023-01-15T05:29:15.833Z,7.83
2023-01-15T05:31:45.117Z,7.90
2023-01-15T05:34:13.605Z,7.93
2023-01-15T05:36:41.652Z,7.95
2023-01-15T05:39:11.115Z,8.01
2023-01-15T05:41:51.255Z,7.98
2023-01-15T05:44:21.704Z,7.95
2023-01-15T05:46:50.388Z,8.08
2023-01-15T05:49:19.644Z,8.07
2023-01-15T05:51:47.879Z,8.02
2023-01-15T05:54:19.473Z,8.05
2023-01-15T05:56:47.788Z,7.99
2023-01-15T05:59:16.142Z,8.04
2023-01-15T06:01:43.737Z,7.99
2023-01-15T06:04:14.205Z,7.99
2023-01-15T06:06:43.273Z,7.99
2023-01-15T06:09:11.431Z,8.00
2023-01-15T06:11:40.609Z,7.96
2023-01-15T06:14:12.356Z,7.97
2023-01-15T06:16:41.468Z,7.93
2023-01-15T06:19:10.986Z,7.68
2023-01-15T06:21:38.564Z,7.60
2023-01-15T06:24:07.115Z,7.49
2023-01-15T06:26:34.676Z,7.41
2023-01-15T06:29:03.556Z,7.35
2023-01-15T06:31:32.587Z,7.32
2023-01-15T06:34:00.156Z,7.27
2023-01-15T06:36:28.532Z,7.24
2023-01-15T06:38:56.531Z,7.24
2023-01-15T06:41:43.854Z,7.18
2023-01-15T06:44:32.679Z,7.05
2023-01-15T06:47:22.881Z,6.97
2023-01-15T06:49:52.218Z,7.05
2023-01-15T06:52:19.709Z,6.70
2023-01-15T06:54:47.589Z,6.76
2023-01-15T06:57:15.035Z,6.95
2023-01-15T06:59:43.856Z,6.60
2023-01-15T07:02:11.650Z,6.50
2023-01-15T07:04:41.532Z,6.86
2023-01-15T07:07:10.005Z,6.67
2023-01-15T07:09:38.028Z,6.18
2023-01-15T07:12:05.657Z,6.29
2023-01-15T07:14:33.196Z,6.26
2023-01-15T07:17:02.046Z,6.42
2023-01-15T07:19:29.437Z,5.87
2023-01-15T07:21:56.873Z,5.84
2023-01-15T07:24:24.456Z,5.88
2023-01-15T07:26:51.927Z,5.90
2023-01-15T07:29:19.727Z,5.81
2023-01-15T07:31:47.279Z,6.13
2023-01-15T07:34:16.114Z,5.77
2023-01-15T07:36:43.452Z,5.79
2023-01-15T07:39:12.749Z,5.71
2023-01-15T07:41:57.789Z,5.80
2023-01-15T07:44:43.283Z,5.93
2023-01-15T07:47:35.304Z,5.75
2023-01-15T07:50:06.440Z,5.63
2023-01-15T07:52:33.920Z,5.57
2023-01-15T07:55:01.994Z,5.63
2023-01-15T07:57:29.490Z,5.54
2023-01-15T07:59:57.002Z,5.76
2023-01-15T08:02:24.678Z,5.32
2023-01-15T08:04:52.151Z,5.08
2023-01-15T08:07:20.969Z,5.16
2023-01-15T08:09:48.419Z,5.19
2023-01-15T08:12:33.564Z,5.29
2023-01-15T08:15:16.350Z,4.98
2023-01-15T08:17:45.734Z,5.04
2023-01-15T08:20:16.017Z,5.01
2023-01-15T08:22:45.870Z,4.71
2023-01-15T08:25:16.570Z,4.78
2023-01-15T08:27:44.493Z,4.85
2023-01-15T08:30:14.539Z,4.74
2023-01-15T08:32:42.174Z,4.62
2023-01-15T08:35:10.420Z,4.29
2023-01-15T08:37:38.024Z,4.62
2023-01-15T08:40:08.098Z,4.39
2023-01-15T08:42:35.774Z,4.51
2023-01-15T08:45:03.375Z,4.33
2023-01-15T08:47:32.337Z,4.28
2023-01-15T08:49:59.935Z,4.22
2023-01-15T08:52:27.419Z,4.49
2023-01-15T08:54:54.909Z,5.44
2023-01-15T08:57:23.750Z,4.52
2023-01-15T08:59:51.196Z,4.55
2023-01-15T09:02:18.585Z,4.78
2023-01-15T09:04:45.925Z,4.37
2023-01-15T09:07:13.597Z,4.72
2023-01-15T09:09:41.118Z,4.83
2023-01-15T09:12:08.896Z,5.05
2023-01-15T09:14:56.565Z,5.44
2023-01-15T09:17:25.208Z,4.77
2023-01-15T09:19:52.773Z,4.83
2023-01-15T09:22:20.280Z,4.74
2023-01-15T09:24:47.750Z,4.92
2023-01-15T09:27:15.296Z,4.87
2023-01-15T09:29:44.074Z,4.84
2023-01-15T09:32:11.394Z,4.94
2023-01-15T09:34:38.887Z,4.50
2023-01-15T09:37:06.331Z,4.50
2023-01-15T09:39:33.825Z,4.52
2023-01-15T09:42:18.381Z,4.65
2023-01-15T09:45:04.353Z,4.43
2023-01-15T09:47:37.493Z,4.45
2023-01-15T09:50:19.217Z,4.39
2023-01-15T09:53:13.360Z,4.42
2023-01-15T09:55:46.427Z,4.71
2023-01-15T09:58:15.650Z,4.50
2023-01-15T10:00:49.677Z,4.14
2023-01-15T10:03:26.171Z,4.29
2023-01-15T10:06:03.233Z,4.27
2023-01-15T10:08:34.829Z,4.12
2023-01-15T10:11:06.587Z,4.72
2023-01-15T10:13:42.565Z,4.47
2023-01-15T10:16:14.129Z,4.59
2023-01-15T10:18:43.406Z,4.81
2023-01-15T10:21:30.906Z,4.32
2023-01-15T10:24:05.860Z,5.08
2023-01-15T10:26:35.257Z,4.76
2023-01-15T10:29:07.228Z,4.70
2023-01-15T10:31:51.010Z,4.68
2023-01-15T10:34:56.461Z,4.28
2023-01-15T10:37:29.041Z,4.22
2023-01-15T10:40:14.394Z,4.25
2023-01-15T10:42:50.870Z,4.64
2023-01-15T10:45:21.793Z,4.19
2023-01-15T10:47:56.346Z,4.83
2023-01-15T10:50:25.749Z,4.72
2023-01-15T10:53:03.530Z,5.13
2023-01-15T10:55:35.759Z,5.52
2023-01-15T10:58:12.350Z,5.56
2023-01-15T11:00:40.603Z,5.00
2023-01-15T11:03:16.673Z,4.94
2023-01-15T11:05:45.693Z,4.69
2023-01-15T11:09:06.111Z,4.88
2023-01-15T11:11:17.049Z,5.03
2023-01-15T11:14:11.405Z,5.08
2023-01-15T11:16:58.135Z,4.78
2023-01-15T11:19:40.181Z,5.11
2023-01-15T11:22:11.009Z,4.70
2023-01-15T11:24:46.373Z,4.84
2023-01-15T11:27:17.297Z,4.62
2023-01-15T11:29:46.539Z,4.82
2023-01-15T11:32:22.863Z,4.71
2023-01-15T11:35:00.011Z,4.87
2023-01-15T11:37:28.592Z,4.65
2023-01-15T11:39:57.445Z,4.69
2023-01-15T11:42:42.565Z,5.13
2023-01-15T11:45:33.618Z,4.83
2023-01-15T11:48:18.770Z,5.45
2023-01-15T11:50:58.069Z,5.21
2023-01-15T11:53:30.205Z,4.93
2023-01-15T11:56:01.180Z,4.99
2023-01-15T11:58:33.468Z,5.16
2023-01-15T12:01:02.163Z,4.80
2023-01-15T12:03:32.336Z,4.81
2023-01-15T12:06:05.425Z,4.92
2023-01-15T12:08:50.482Z,4.90
2023-01-15T12:11:31.862Z,4.49
2023-01-15T12:14:18.026Z,4.68
2023-01-15T12:16:51.567Z,4.49
2023-01-15T12:19:27.366Z,4.64
2023-01-15T12:22:18.974Z,4.78
2023-01-15T12:25:19.525Z,5.14
2023-01-15T12:28:07.710Z,4.56
2023-01-15T12:30:43.294Z,4.61
2023-01-15T12:33:21.741Z,4.76
2023-01-15T12:35:56.886Z,4.97
2023-01-15T12:38:35.600Z,4.71
2023-01-15T12:41:11.355Z,5.13
2023-01-15T12:43:56.766Z,4.81
2023-01-15T12:46:29.910Z,4.16
2023-01-15T12:49:04.297Z,4.41
2023-01-15T12:51:39.415Z,4.33
2023-01-15T12:54:12.051Z,4.78
2023-01-15T12:56:48.979Z,4.54
2023-01-15T12:59:23.483Z,4.89
2023-01-15T13:01:59.421Z,4.85
2023-01-15T13:04:33.514Z,4.60
2023-01-15T13:07:09.360Z,3.78
2023-01-15T13:09:45.020Z,3.29
2023-01-15T13:12:16.926Z,3.01
2023-01-15T13:14:46.725Z,3.21
2023-01-15T13:17:26.895Z,2.89
2023-01-15T13:20:12.670Z,3.12
2023-01-15T13:22:46.734Z,4.35
2023-01-15T13:25:35.989Z,2.86
2023-01-15T13:28:18.961Z,2.98
2023-01-15T13:31:00.594Z,2.86
2023-01-15T13:33:33.317Z,2.94
2023-01-15T13:36:10.670Z,3.00
2023-01-15T13:38:41.756Z,3.08
2023-01-15T13:41:11.156Z,3.55
2023-01-15T13:43:41.727Z,3.51
2023-01-15T13:46:12.535Z,3.40
2023-01-15T13:48:45.634Z,3.67
2023-01-15T13:51:28.744Z,3.35
2023-01-15T13:53:58.612Z,3.29
2023-01-15T13:56:29.720Z,3.92
2023-01-15T13:58:59.931Z,3.43
2023-01-15T14:01:34.360Z,3.28
2023-01-15T14:04:06.282Z,4.59
2023-01-15T14:06:41.767Z,4.85
2023-01-15T14:09:12.462Z,4.45
2023-01-15T14:11:55.919Z,4.23
2023-01-15T14:15:02.199Z,4.66
2023-01-15T14:17:57.781Z,3.60
2023-01-15T14:20:38.635Z,4.06
2023-01-15T14:23:28.545Z,4.30
2023-01-15T14:26:04.985Z,3.87
2023-01-15T14:28:48.227Z,3.65
2023-01-15T14:31:31.414Z,4.25
2023-01-15T14:34:13.695Z,3.79
2023-01-15T14:36:50.454Z,3.77
2023-01-15T14:39:28.537Z,3.97
2023-01-15T14:42:19.317Z,3.89
2023-01-15T14:44:55.592Z,4.40
2023-01-15T14:47:29.368Z,3.86
2023-01-15T14:50:20.168Z,4.12
2023-01-15T14:52:51.662Z,4.18
2023-01-15T14:55:20.862Z,4.20
2023-01-15T14:57:58.000Z,3.93
2023-01-15T15:00:33.638Z,4.05
2023-01-15T15:03:04.361Z,4.45
2023-01-15T15:05:34.977Z,4.33
2023-01-15T15:08:04.307Z,4.02
2023-01-15T15:10:34.858Z,4.50
2023-01-15T15:13:09.096Z,4.03
2023-01-15T15:15:44.820Z,3.37
2023-01-15T15:18:23.387Z,4.04
2023-01-15T15:20:54.599Z,4.01
2023-01-15T15:23:28.927Z,4.15
2023-01-15T15:25:57.840Z,3.60
2023-01-15T15:28:25.315Z,3.37
2023-01-15T15:30:57.293Z,3.31
2023-01-15T15:33:27.893Z,3.75
2023-01-15T15:35:58.042Z,3.94
2023-01-15T15:38:26.757Z,3.63
2023-01-15T15:40:57.412Z,4.12
2023-01-15T15:43:47.629Z,4.13
2023-01-15T15:46:48.132Z,3.66
2023-01-15T15:49:16.077Z,3.93
2023-01-15T15:51:48.541Z,3.57
2023-01-15T15:54:18.682Z,3.42
2023-01-15T15:56:51.174Z,4.06
2023-01-15T15:59:26.803Z,3.93
2023-01-15T16:01:56.431Z,3.97
2023-01-15T16:04:25.135Z,3.94
2023-01-15T16:06:52.920Z,4.04
2023-01-15T16:09:24.486Z,3.79
2023-01-15T16:11:53.878Z,3.72
2023-01-15T16:14:22.648Z,3.84
2023-01-15T16:16:51.431Z,4.08
2023-01-15T16:19:25.363Z,3.60
2023-01-15T16:21:54.180Z,3.30
2023-01-15T16:24:27.500Z,3.64
2023-01-15T16:27:00.965Z,3.85
2023-01-15T16:29:31.597Z,3.96
2023-01-15T16:31:59.823Z,3.79
2023-01-15T16:34:33.428Z,3.87
2023-01-15T16:37:02.800Z,4.01
2023-01-15T16:39:37.665Z,3.83
2023-01-15T16:42:05.527Z,3.27
2023-01-15T16:44:38.514Z,3.64
2023-01-15T16:47:06.755Z,3.38
2023-01-15T16:49:35.791Z,4.06
2023-01-15T16:52:24.499Z,3.91
2023-01-15T16:54:51.963Z,3.93
2023-01-15T16:57:35.155Z,3.53
2023-01-15T17:00:06.677Z,3.80
2023-01-15T17:02:45.020Z,3.88
2023-01-15T17:05:22.650Z,4.10
2023-01-15T17:07:51.429Z,3.75
2023-01-15T17:10:22.732Z,3.84
2023-01-15T17:12:50.906Z,4.07
2023-01-15T17:15:37.812Z,3.65
2023-01-15T17:18:27.829Z,4.12
2023-01-15T17:20:57.023Z,4.06
2023-01-15T17:23:31.933Z,3.92
2023-01-15T17:25:59.577Z,3.93
2023-01-15T17:28:27.204Z,3.96
2023-01-15T17:31:00.395Z,4.18
2023-01-15T17:33:28.361Z,3.90
2023-01-15T17:36:00.568Z,3.99
2023-01-15T17:38:28.230Z,3.92
2023-01-15T17:40:57.619Z,4.13
2023-01-15T17:43:26.321Z,4.08
2023-01-15T17:45:53.825Z,4.10
2023-01-15T17:48:23.645Z,3.77
2023-01-15T17:50:51.151Z,4.00
2023-01-15T17:53:19.977Z,3.82
2023-01-15T17:56:05.063Z,3.85
2023-01-15T17:58:50.441Z,3.28
2023-01-15T18:01:38.670Z,3.85
2023-01-15T18:04:24.800Z,3.46
2023-01-15T18:06:54.651Z,3.28
2023-01-15T18:09:24.369Z,3.91
2023-01-15T18:11:51.834Z,3.71
2023-01-15T18:14:19.341Z,3.84
2023-01-15T18:16:46.949Z,3.73
2023-01-15T18:19:14.500Z,3.31
2023-01-15T18:21:42.060Z,3.49
2023-01-15T18:24:11.686Z,3.64
2023-01-15T18:26:42.436Z,3.69
2023-01-15T18:29:11.401Z,3.40
2023-01-15T18:31:39.163Z,3.59
2023-01-15T18:34:07.253Z,3.72
2023-01-15T18:36:34.764Z,3.48
2023-01-15T18:39:06.093Z,3.13
2023-01-15T18:41:52.229Z,3.57
2023-01-15T18:44:40.064Z,3.50
2023-01-15T18:47:11.983Z,3.43
2023-01-15T18:49:39.987Z,3.46
2023-01-15T18:52:25.478Z,3.43
2023-01-15T18:54:53.282Z,3.36
2023-01-15T18:57:20.938Z,3.40
2023-01-15T18:59:50.376Z,3.32
2023-01-15T19:02:19.509Z,3.31
2023-01-15T19:04:48.374Z,3.44
2023-01-15T19:07:16.436Z,3.51
2023-01-15T19:09:44.043Z,3.37
2023-01-15T19:12:11.849Z,3.34
2023-01-15T19:14:56.873Z,3.37
2023-01-15T19:17:55.846Z,3.37
2023-01-15T19:20:23.367Z,3.29
2023-01-15T19:22:59.948Z,3.07
2023-01-15T19:25:29.807Z,3.24
2023-01-15T19:27:57.901Z,3.24
2023-01-15T19:30:26.187Z,3.32
2023-01-15T19:32:55.821Z,3.28
2023-01-15T19:35:23.295Z,3.16
2023-01-15T19:37:51.022Z,3.20
2023-01-15T19:40:20.772Z,3.31
2023-01-15T19:43:08.329Z,3.29
2023-01-15T19:46:10.105Z,3.30
2023-01-15T19:48:56.515Z,3.18
2023-01-15T19:51:44.052Z,2.92
2023-01-15T19:54:11.553Z,2.97
2023-01-15T19:56:39.930Z,2.87
2023-01-15T19:59:08.300Z,3.21
2023-01-15T20:01:35.892Z,3.32
2023-01-15T20:04:04.988Z,3.09
2023-01-15T20:06:32.292Z,3.30
2023-01-15T20:08:59.753Z,3.00
2023-01-15T20:11:47.691Z,3.08
2023-01-15T20:14:14.194Z,3.11
2023-01-15T20:16:41.646Z,3.26
2023-01-15T20:19:10.503Z,3.21
2023-01-15T20:21:37.946Z,3.03
2023-01-15T20:24:05.765Z,2.99
2023-01-15T20:26:33.215Z,3.29
2023-01-15T20:29:00.791Z,3.24
2023-01-15T20:31:28.311Z,3.19
2023-01-15T20:33:57.703Z,3.22
2023-01-15T20:36:26.614Z,3.27
2023-01-15T20:38:54.062Z,3.31
2023-01-15T20:41:45.474Z,3.17
2023-01-15T20:44:30.709Z,3.27
2023-01-15T20:46:58.793Z,2.78
2023-01-15T20:49:27.132Z,3.11
2023-01-15T20:51:56.934Z,3.25
2023-01-15T20:54:26.177Z,3.20
2023-01-15T20:56:53.670Z,2.92
2023-01-15T20:59:21.162Z,3.04
2023-01-15T21:01:48.844Z,3.02
2023-01-15T21:04:16.419Z,3.17
2023-01-15T21:06:44.036Z,2.96
2023-01-15T21:09:12.887Z,3.05
2023-01-15T21:11:43.339Z,3.31
2023-01-15T21:14:10.825Z,3.06
2023-01-15T21:16:38.449Z,3.18
2023-01-15T21:19:06.002Z,3.11
2023-01-15T21:21:33.463Z,3.11
2023-01-15T21:24:01.966Z,3.10
2023-01-15T21:26:30.981Z,3.02
2023-01-15T21:28:58.606Z,2.94
2023-01-15T21:31:26.194Z,2.99
2023-01-15T21:33:54.393Z,3.07
2023-01-15T21:36:22.285Z,2.94
2023-01-15T21:38:51.080Z,2.95
2023-01-15T21:41:18.606Z,2.81
2023-01-15T21:44:04.860Z,2.81
2023-01-15T21:46:32.298Z,2.97
2023-01-15T21:49:00.119Z,2.72
2023-01-15T21:51:28.086Z,2.98
2023-01-15T21:53:55.547Z,3.02
2023-01-15T21:56:23.036Z,2.83
2023-01-15T21:58:51.848Z,2.93
2023-01-15T22:01:20.726Z,2.80
2023-01-15T22:03:48.250Z,2.85
2023-01-15T22:06:15.971Z,2.94
2023-01-15T22:08:43.443Z,2.78
2023-01-15T22:11:11.487Z,2.84
2023-01-15T22:13:41.030Z,2.88
2023-01-15T22:16:09.879Z,2.74
2023-01-15T22:18:37.543Z,2.80
2023-01-15T22:21:07.460Z,2.72
2023-01-15T22:23:35.398Z,2.70
2023-01-15T22:26:02.936Z,2.62
2023-01-15T22:28:30.402Z,2.80
2023-01-15T22:30:58.191Z,2.82
2023-01-15T22:33:26.999Z,2.73
2023-01-15T22:35:58.543Z,2.19
2023-01-15T22:38:26.202Z,2.78
2023-01-15T22:40:53.776Z,2.79
2023-01-15T22:43:24.097Z,2.71
2023-01-15T22:45:51.635Z,2.72
2023-01-15T22:48:21.501Z,2.83
2023-01-15T22:50:50.320Z,2.80
2023-01-15T22:53:17.775Z,2.79
2023-01-15T22:55:45.211Z,2.71
2023-01-15T22:58:12.666Z,2.61
2023-01-15T23:00:40.352Z,2.62
2023-01-15T23:03:08.079Z,2.82
2023-01-15T23:05:38.798Z,2.62
2023-01-15T23:08:09.242Z,2.60
2023-01-15T23:10:37.186Z,2.50
2023-01-15T23:13:04.884Z,2.63
2023-01-15T23:15:32.369Z,2.12
2023-01-15T23:17:59.867Z,2.64
2023-01-15T23:20:27.326Z,2.67
2023-01-15T23:22:54.961Z,2.55
2023-01-15T23:25:24.197Z,2.55
2023-01-15T23:27:51.666Z,2.54
2023-01-15T23:30:19.347Z,2.49
2023-01-15T23:32:46.802Z,2.43
2023-01-15T23:35:14.276Z,2.30
2023-01-15T23:37:41.728Z,2.46
2023-01-15T23:40:10.541Z,2.41
2023-01-15T23:42:57.023Z,2.53
2023-01-15T23:45:42.179Z,2.63
2023-01-15T23:48:09.707Z,2.60
2023-01-15T23:50:37.258Z,2.51
2023-01-15T23:53:05.434Z,2.62
2023-01-15T23:55:32.898Z,2.68
2023-01-15T23:58:01.673Z,2.69
